sensor_id;sensor_type;location;lat;lon;timestamp;temperature;humidity
7684;DHT22;3884;48.616;12.872;2023-07-20T00:00:16;19.00;1.00
7684;DHT22;3884;48.616;12.872;2023-07-20T00:02:43;19.00;99.90
7684;DHT22;3884;48.616;12.872;2023-07-20T00:05:10;19.00;1.00
7684;DHT22;3884;48.616;12.872;2023-07-20T00:07:37;19.00;99.90
7684;DHT22;3884;48.616;12.872;2023-07-20T00:10:05;19.00;1.00
7684;DHT22;3884;48.616;12.872;2023-07-20T00:12:31;18.90;99.90
7684;DHT22;3884;48.616;12.872;2023-07-20T00:14:58;19.00;1.00
7684;DHT22;3884;48.616;12.872;2023-07-20T00:17:27;19.10;99.90
7684;DHT22;3884;48.616;12.872;2023-07-20T00:19:54;19.10;1.00
7684;DHT22;3884;48.616;12.872;2023-07-20T00:22:21;19.20;1.00
7684;DHT22;3884;48.616;12.872;2023-07-20T00:24:48;19.20;1.00
7684;DHT22;3884;48.616;12.872;2023-07-20T00:27:15;19.20;99.90
7684;DHT22;3884;48.616;12.872;2023-07-20T00:29:42;19.20;18.90
7684;DHT22;3884;48.616;12.872;2023-07-20T00:32:09;19.10;8.80
7684;DHT22;3884;48.616;12.872;2023-07-20T00:34:37;19.10;99.90
7684;DHT22;3884;48.616;12.872;2023-07-20T00:37:04;19.10;1.00
7684;DHT22;3884;48.616;12.872;2023-07-20T00:39:31;19.10;99.90
7684;DHT22;3884;48.616;12.872;2023-07-20T00:41:58;19.10;1.00
7684;DHT22;3884;48.616;12.872;2023-07-20T00:44:25;19.10;99.90
7684;DHT22;3884;48.616;12.872;2023-07-20T00:46:52;19.10;99.90
7684;DHT22;3884;48.616;12.872;2023-07-20T00:49:19;19.10;1.00
7684;DHT22;3884;48.616;12.872;2023-07-20T00:51:49;19.00;99.90
7684;DHT22;3884;48.616;12.872;2023-07-20T00:54:17;19.10;33.20
7684;DHT22;3884;48.616;12.872;2023-07-20T00:56:44;19.10;21.30
7684;DHT22;3884;48.616;12.872;2023-07-20T00:59:13;19.10;1.00
7684;DHT22;3884;48.616;12.872;2023-07-20T01:01:40;18.90;92.30
7684;DHT22;3884;48.616;12.872;2023-07-20T01:04:06;19.00;99.90
7684;DHT22;3884;48.616;12.872;2023-07-20T01:06:41;19.00;99.90
7684;DHT22;3884;48.616;12.872;2023-07-20T01:09:16;19.20;99.90
7684;DHT22;3884;48.616;12.872;2023-07-20T01:11:51;19.10;1.00
7684;DHT22;3884;48.616;12.872;2023-07-20T01:14:21;19.00;36.80
7684;DHT22;3884;48.616;12.872;2023-07-20T01:16:48;19.00;1.00
7684;DHT22;3884;48.616;12.872;2023-07-20T01:19:18;19.00;15.20
7684;DHT22;3884;48.616;12.872;2023-07-20T01:21:51;19.00;1.00
7684;DHT22;3884;48.616;12.872;2023-07-20T01:24:59;19.00;99.90
7684;DHT22;3884;48.616;12.872;2023-07-20T01:30:45;19.00;1.00
7684;DHT22;3884;48.616;12.872;2023-07-20T01:33:19;19.00;68.60
7684;DHT22;3884;48.616;12.872;2023-07-20T01:35:52;19.00;1.00
7684;DHT22;3884;48.616;12.872;2023-07-20T01:38:20;19.00;99.90
7684;DHT22;3884;48.616;12.872;2023-07-20T01:40:49;19.00;93.10
7684;DHT22;3884;48.616;12.872;2023-07-20T01:43:16;19.00;1.00
7684;DHT22;3884;48.616;12.872;2023-07-20T01:45:43;19.00;99.90
7684;DHT22;3884;48.616;12.872;2023-07-20T01:48:10;19.10;1.00
7684;DHT22;3884;48.616;12.872;2023-07-20T01:50:38;19.10;75.40
7684;DHT22;3884;48.616;12.872;2023-07-20T01:53:05;19.00;1.00
7684;DHT22;3884;48.616;12.872;2023-07-20T01:55:32;19.00;1.00
7684;DHT22;3884;48.616;12.872;2023-07-20T01:57:59;19.00;99.90
7684;DHT22;3884;48.616;12.872;2023-07-20T02:00:27;19.00;99.90
7684;DHT22;3884;48.616;12.872;2023-07-20T02:02:54;19.00;1.00
7684;DHT22;3884;48.616;12.872;2023-07-20T02:05:21;19.10;1.00
7684;DHT22;3884;48.616;12.872;2023-07-20T02:07:49;19.00;1.00
7684;DHT22;3884;48.616;12.872;2023-07-20T02:10:19;19.00;99.90
7684;DHT22;3884;48.616;12.872;2023-07-20T02:12:46;18.90;99.90
7684;DHT22;3884;48.616;12.872;2023-07-20T02:15:13;19.00;13.80
7684;DHT22;3884;48.616;12.872;2023-07-20T02:17:42;19.00;99.90
7684;DHT22;3884;48.616;12.872;2023-07-20T02:20:09;19.10;1.00
7684;DHT22;3884;48.616;12.872;2023-07-20T02:22:37;19.10;1.00
7684;DHT22;3884;48.616;12.872;2023-07-20T02:25:07;19.00;1.00
7684;DHT22;3884;48.616;12.872;2023-07-20T02:27:34;19.10;99.90
7684;DHT22;3884;48.616;12.872;2023-07-20T02:30:01;19.00;99.90
7684;DHT22;3884;48.616;12.872;2023-07-20T02:32:30;19.00;1.00
7684;DHT22;3884;48.616;12.872;2023-07-20T02:34:57;19.00;99.90
7684;DHT22;3884;48.616;12.872;2023-07-20T02:37:24;19.00;99.90
7684;DHT22;3884;48.616;12.872;2023-07-20T02:39:51;19.00;99.90
7684;DHT22;3884;48.616;12.872;2023-07-20T02:42:19;18.90;1.00
7684;DHT22;3884;48.616;12.872;2023-07-20T02:44:48;18.90;99.90
7684;DHT22;3884;48.616;12.872;2023-07-20T02:47:15;18.90;10.60
7684;DHT22;3884;48.616;12.872;2023-07-20T02:49:42;18.90;99.90
7684;DHT22;3884;48.616;12.872;2023-07-20T02:52:09;18.90;99.90
7684;DHT22;3884;48.616;12.872;2023-07-20T02:54:36;18.90;99.90
7684;DHT22;3884;48.616;12.872;2023-07-20T02:57:03;18.90;1.00
7684;DHT22;3884;48.616;12.872;2023-07-20T02:59:32;18.90;99.90
7684;DHT22;3884;48.616;12.872;2023-07-20T03:01:58;18.80;1.00
7684;DHT22;3884;48.616;12.872;2023-07-20T03:04:26;18.80;99.90
7684;DHT22;3884;48.616;12.872;2023-07-20T03:06:53;18.80;1.00
7684;DHT22;3884;48.616;12.872;2023-07-20T03:09:20;18.70;1.00
7684;DHT22;3884;48.616;12.872;2023-07-20T03:11:48;18.70;1.00
7684;DHT22;3884;48.616;12.872;2023-07-20T03:14:15;18.60;5.20
7684;DHT22;3884;48.616;12.872;2023-07-20T03:16:44;18.60;1.00
7684;DHT22;3884;48.616;12.872;2023-07-20T03:19:12;18.60;99.90
7684;DHT22;3884;48.616;12.872;2023-07-20T03:21:40;18.60;1.00
7684;DHT22;3884;48.616;12.872;2023-07-20T03:24:08;18.60;99.90
7684;DHT22;3884;48.616;12.872;2023-07-20T03:26:35;18.60;1.00
7684;DHT22;3884;48.616;12.872;2023-07-20T03:29:03;18.50;99.90
7684;DHT22;3884;48.616;12.872;2023-07-20T03:31:32;18.50;28.80
7684;DHT22;3884;48.616;12.872;2023-07-20T03:34:00;18.50;99.90
7684;DHT22;3884;48.616;12.872;2023-07-20T03:36:27;18.40;1.00
7684;DHT22;3884;48.616;12.872;2023-07-20T03:38:54;18.40;1.00
7684;DHT22;3884;48.616;12.872;2023-07-20T03:41:21;18.40;99.90
7684;DHT22;3884;48.616;12.872;2023-07-20T03:43:48;18.30;40.60
7684;DHT22;3884;48.616;12.872;2023-07-20T03:46:16;18.40;1.00
7684;DHT22;3884;48.616;12.872;2023-07-20T03:48:42;18.40;99.90
7684;DHT22;3884;48.616;12.872;2023-07-20T03:51:11;18.40;1.00
7684;DHT22;3884;48.616;12.872;2023-07-20T03:53:38;18.40;99.90
7684;DHT22;3884;48.616;12.872;2023-07-20T03:56:05;18.50;1.00
7684;DHT22;3884;48.616;12.872;2023-07-20T03:58:32;18.50;99.90
7684;DHT22;3884;48.616;12.872;2023-07-20T04:00:58;18.50;1.00
7684;DHT22;3884;48.616;12.872;2023-07-20T04:03:25;18.50;1.00
7684;DHT22;3884;48.616;12.872;2023-07-20T04:05:53;18.50;1.00
7684;DHT22;3884;48.616;12.872;2023-07-20T04:08:22;18.50;46.70
7684;DHT22;3884;48.616;12.872;2023-07-20T04:10:49;18.50;1.00
7684;DHT22;3884;48.616;12.872;2023-07-20T04:13:17;18.60;1.00
7684;DHT22;3884;48.616;12.872;2023-07-20T04:15:44;18.60;99.90
7684;DHT22;3884;48.616;12.872;2023-07-20T04:18:11;18.70;1.00
7684;DHT22;3884;48.616;12.872;2023-07-20T04:20:38;18.70;1.00
7684;DHT22;3884;48.616;12.872;2023-07-20T04:23:05;18.70;1.00
7684;DHT22;3884;48.616;12.872;2023-07-20T04:25:34;18.70;1.00
7684;DHT22;3884;48.616;12.872;2023-07-20T04:28:05;18.80;1.00
7684;DHT22;3884;48.616;12.872;2023-07-20T04:30:36;18.90;99.90
7684;DHT22;3884;48.616;12.872;2023-07-20T04:33:04;18.80;1.00
7684;DHT22;3884;48.616;12.872;2023-07-20T04:35:50;18.90;1.00
7684;DHT22;3884;48.616;12.872;2023-07-20T04:38:28;18.90;1.00
7684;DHT22;3884;48.616;12.872;2023-07-20T04:41:07;18.90;99.90
7684;DHT22;3884;48.616;12.872;2023-07-20T04:43:42;18.90;99.90
7684;DHT22;3884;48.616;12.872;2023-07-20T04:46:10;18.90;99.90
7684;DHT22;3884;48.616;12.872;2023-07-20T04:48:38;19.00;99.90
7684;DHT22;3884;48.616;12.872;2023-07-20T04:51:06;19.00;1.00
7684;DHT22;3884;48.616;12.872;2023-07-20T04:53:33;18.90;99.90
7684;DHT22;3884;48.616;12.872;2023-07-20T04:56:00;19.00;99.90
7684;DHT22;3884;48.616;12.872;2023-07-20T04:58:30;19.00;48.80
7684;DHT22;3884;48.616;12.872;2023-07-20T05:00:57;19.00;83.90
7684;DHT22;3884;48.616;12.872;2023-07-20T05:03:24;19.00;1.00
7684;DHT22;3884;48.616;12.872;2023-07-20T05:05:51;19.00;1.00
7684;DHT22;3884;48.616;12.872;2023-07-20T05:08:18;19.00;1.00
7684;DHT22;3884;48.616;12.872;2023-07-20T05:10:46;19.00;99.90
7684;DHT22;3884;48.616;12.872;2023-07-20T05:13:13;19.00;99.90
7684;DHT22;3884;48.616;12.872;2023-07-20T05:15:41;19.00;9.40
7684;DHT22;3884;48.616;12.872;2023-07-20T05:18:12;18.90;1.00
7684;DHT22;3884;48.616;12.872;2023-07-20T05:20:39;18.90;99.90
7684;DHT22;3884;48.616;12.872;2023-07-20T05:23:06;18.90;1.00
7684;DHT22;3884;48.616;12.872;2023-07-20T05:25:32;18.90;1.00
7684;DHT22;3884;48.616;12.872;2023-07-20T05:27:59;19.00;99.90
7684;DHT22;3884;48.616;12.872;2023-07-20T05:30:26;19.00;1.00
7684;DHT22;3884;48.616;12.872;2023-07-20T05:32:56;18.90;99.90
7684;DHT22;3884;48.616;12.872;2023-07-20T05:35:22;18.90;99.90
7684;DHT22;3884;48.616;12.872;2023-07-20T05:37:49;18.90;67.30
7684;DHT22;3884;48.616;12.872;2023-07-20T05:40:16;19.00;49.50
7684;DHT22;3884;48.616;12.872;2023-07-20T05:42:44;19.00;1.00
7684;DHT22;3884;48.616;12.872;2023-07-20T05:45:14;19.00;1.00
7684;DHT22;3884;48.616;12.872;2023-07-20T05:47:41;19.00;1.00
7684;DHT22;3884;48.616;12.872;2023-07-20T05:50:10;19.00;99.90
7684;DHT22;3884;48.616;12.872;2023-07-20T05:52:37;19.00;99.90
7684;DHT22;3884;48.616;12.872;2023-07-20T05:55:05;19.10;99.90
7684;DHT22;3884;48.616;12.872;2023-07-20T05:57:32;19.20;99.90
7684;DHT22;3884;48.616;12.872;2023-07-20T06:00:01;19.20;70.10
7684;DHT22;3884;48.616;12.872;2023-07-20T06:02:37;19.10;85.40
7684;DHT22;3884;48.616;12.872;2023-07-20T06:05:05;19.20;47.00
7684;DHT22;3884;48.616;12.872;2023-07-20T06:07:36;19.30;99.90
7684;DHT22;3884;48.616;12.872;2023-07-20T06:10:03;19.30;1.00
7684;DHT22;3884;48.616;12.872;2023-07-20T06:12:31;19.30;1.00
7684;DHT22;3884;48.616;12.872;2023-07-20T06:15:01;19.30;1.00
7684;DHT22;3884;48.616;12.872;2023-07-20T06:17:28;19.30;1.00
7684;DHT22;3884;48.616;12.872;2023-07-20T06:19:55;19.40;1.00
7684;DHT22;3884;48.616;12.872;2023-07-20T06:22:22;19.50;1.00
7684;DHT22;3884;48.616;12.872;2023-07-20T06:24:51;19.50;1.00
7684;DHT22;3884;48.616;12.872;2023-07-20T06:27:18;19.50;1.00
7684;DHT22;3884;48.616;12.872;2023-07-20T06:29:45;19.60;1.00
7684;DHT22;3884;48.616;12.872;2023-07-20T06:32:12;19.60;1.00
7684;DHT22;3884;48.616;12.872;2023-07-20T06:34:39;19.60;1.00
7684;DHT22;3884;48.616;12.872;2023-07-20T06:37:06;19.60;1.00
7684;DHT22;3884;48.616;12.872;2023-07-20T06:39:33;19.60;1.00
7684;DHT22;3884;48.616;12.872;2023-07-20T06:42:01;19.70;1.00
7684;DHT22;3884;48.616;12.872;2023-07-20T06:44:29;19.70;1.00
7684;DHT22;3884;48.616;12.872;2023-07-20T06:46:56;19.60;1.00
7684;DHT22;3884;48.616;12.872;2023-07-20T06:49:26;19.70;1.00
7684;DHT22;3884;48.616;12.872;2023-07-20T06:51:53;19.80;1.00
7684;DHT22;3884;48.616;12.872;2023-07-20T06:54:20;19.80;99.90
7684;DHT22;3884;48.616;12.872;2023-07-20T06:56:47;19.90;99.90
7684;DHT22;3884;48.616;12.872;2023-07-20T06:59:15;19.80;99.90
7684;DHT22;3884;48.616;12.872;2023-07-20T07:01:42;19.80;99.90
7684;DHT22;3884;48.616;12.872;2023-07-20T07:04:09;19.90;99.90
7684;DHT22;3884;48.616;12.872;2023-07-20T07:06:36;19.90;99.90
7684;DHT22;3884;48.616;12.872;2023-07-20T07:09:03;20.00;99.90
7684;DHT22;3884;48.616;12.872;2023-07-20T07:11:31;19.90;99.90
7684;DHT22;3884;48.616;12.872;2023-07-20T07:13:58;19.90;99.90
7684;DHT22;3884;48.616;12.872;2023-07-20T07:16:26;20.00;99.90
7684;DHT22;3884;48.616;12.872;2023-07-20T07:18:53;20.00;99.90
7684;DHT22;3884;48.616;12.872;2023-07-20T07:21:20;20.10;99.90
7684;DHT22;3884;48.616;12.872;2023-07-20T07:23:47;20.00;99.90
7684;DHT22;3884;48.616;12.872;2023-07-20T07:26:15;20.00;99.90
7684;DHT22;3884;48.616;12.872;2023-07-20T07:28:42;20.10;99.90
7684;DHT22;3884;48.616;12.872;2023-07-20T07:31:09;20.00;99.90
7684;DHT22;3884;48.616;12.872;2023-07-20T07:33:37;20.20;99.90
7684;DHT22;3884;48.616;12.872;2023-07-20T07:36:04;20.50;99.90
7684;DHT22;3884;48.616;12.872;2023-07-20T07:38:31;20.60;99.90
7684;DHT22;3884;48.616;12.872;2023-07-20T07:40:59;20.70;99.90
7684;DHT22;3884;48.616;12.872;2023-07-20T07:43:26;20.50;99.90
7684;DHT22;3884;48.616;12.872;2023-07-20T07:45:54;20.50;99.90
7684;DHT22;3884;48.616;12.872;2023-07-20T07:48:21;20.50;99.90
7684;DHT22;3884;48.616;12.872;2023-07-20T07:50:49;20.50;99.90
7684;DHT22;3884;48.616;12.872;2023-07-20T07:53:16;20.60;99.90
7684;DHT22;3884;48.616;12.872;2023-07-20T07:55:43;20.70;99.90
7684;DHT22;3884;48.616;12.872;2023-07-20T07:58:10;20.80;99.90
7684;DHT22;3884;48.616;12.872;2023-07-20T08:00:37;20.90;99.90
7684;DHT22;3884;48.616;12.872;2023-07-20T08:03:05;21.10;99.90
7684;DHT22;3884;48.616;12.872;2023-07-20T08:05:33;21.20;99.90
7684;DHT22;3884;48.616;12.872;2023-07-20T08:08:01;21.10;99.90
7684;DHT22;3884;48.616;12.872;2023-07-20T08:10:29;21.20;99.90
7684;DHT22;3884;48.616;12.872;2023-07-20T08:12:56;21.50;99.90
7684;DHT22;3884;48.616;12.872;2023-07-20T08:15:23;21.30;99.90
7684;DHT22;3884;48.616;12.872;2023-07-20T08:17:50;21.30;99.90
7684;DHT22;3884;48.616;12.872;2023-07-20T08:20:18;21.30;99.90
7684;DHT22;3884;48.616;12.872;2023-07-20T08:22:49;21.30;99.90
7684;DHT22;3884;48.616;12.872;2023-07-20T08:25:17;21.50;99.90
7684;DHT22;3884;48.616;12.872;2023-07-20T08:27:44;21.50;99.90
7684;DHT22;3884;48.616;12.872;2023-07-20T08:30:11;21.50;99.90
7684;DHT22;3884;48.616;12.872;2023-07-20T08:32:39;21.30;99.90
7684;DHT22;3884;48.616;12.872;2023-07-20T08:35:06;21.40;99.90
7684;DHT22;3884;48.616;12.872;2023-07-20T08:37:33;21.50;99.90
7684;DHT22;3884;48.616;12.872;2023-07-20T08:40:00;21.60;99.90
7684;DHT22;3884;48.616;12.872;2023-07-20T08:42:33;21.70;99.90
7684;DHT22;3884;48.616;12.872;2023-07-20T08:45:05;21.70;99.90
7684;DHT22;3884;48.616;12.872;2023-07-20T08:47:34;21.60;99.90
7684;DHT22;3884;48.616;12.872;2023-07-20T08:50:02;21.70;99.90
7684;DHT22;3884;48.616;12.872;2023-07-20T08:52:34;21.70;99.90
7684;DHT22;3884;48.616;12.872;2023-07-20T08:55:01;22.00;99.90
7684;DHT22;3884;48.616;12.872;2023-07-20T08:57:29;22.10;99.90
7684;DHT22;3884;48.616;12.872;2023-07-20T09:00:00;22.10;99.90
7684;DHT22;3884;48.616;12.872;2023-07-20T09:02:34;22.40;99.90
7684;DHT22;3884;48.616;12.872;2023-07-20T09:05:02;22.50;99.90
7684;DHT22;3884;48.616;12.872;2023-07-20T09:07:31;22.70;99.90
7684;DHT22;3884;48.616;12.872;2023-07-20T09:09:58;22.70;95.40
7684;DHT22;3884;48.616;12.872;2023-07-20T09:12:31;22.60;95.10
7684;DHT22;3884;48.616;12.872;2023-07-20T09:14:59;22.60;81.00
7684;DHT22;3884;48.616;12.872;2023-07-20T09:17:29;22.60;65.20
7684;DHT22;3884;48.616;12.872;2023-07-20T09:19:58;22.70;74.80
7684;DHT22;3884;48.616;12.872;2023-07-20T09:25:40;22.30;53.80
7684;DHT22;3884;48.616;12.872;2023-07-20T09:28:08;22.10;52.90
7684;DHT22;3884;48.616;12.872;2023-07-20T09:30:36;22.40;41.00
7684;DHT22;3884;48.616;12.872;2023-07-20T09:33:03;22.70;22.50
7684;DHT22;3884;48.616;12.872;2023-07-20T09:35:30;23.00;18.20
7684;DHT22;3884;48.616;12.872;2023-07-20T09:37:59;23.30;1.00
7684;DHT22;3884;48.616;12.872;2023-07-20T09:40:28;23.40;1.00
7684;DHT22;3884;48.616;12.872;2023-07-20T09:42:55;23.20;1.00
7684;DHT22;3884;48.616;12.872;2023-07-20T09:45:29;23.20;1.00
7684;DHT22;3884;48.616;12.872;2023-07-20T09:48:03;23.20;1.00
7684;DHT22;3884;48.616;12.872;2023-07-20T09:50:30;23.10;1.00
7684;DHT22;3884;48.616;12.872;2023-07-20T09:52:58;23.10;1.00
7684;DHT22;3884;48.616;12.872;2023-07-20T09:55:27;22.90;1.00
7684;DHT22;3884;48.616;12.872;2023-07-20T09:57:54;23.00;1.00
7684;DHT22;3884;48.616;12.872;2023-07-20T10:00:21;23.00;1.00
7684;DHT22;3884;48.616;12.872;2023-07-20T10:02:51;22.90;1.00
7684;DHT22;3884;48.616;12.872;2023-07-20T10:05:20;22.80;1.00
7684;DHT22;3884;48.616;12.872;2023-07-20T10:07:48;22.80;1.00
7684;DHT22;3884;48.616;12.872;2023-07-20T10:10:16;22.70;1.00
7684;DHT22;3884;48.616;12.872;2023-07-20T10:12:46;22.70;1.00
7684;DHT22;3884;48.616;12.872;2023-07-20T10:15:18;22.60;1.00
7684;DHT22;3884;48.616;12.872;2023-07-20T10:17:53;22.60;1.00
7684;DHT22;3884;48.616;12.872;2023-07-20T10:20:23;22.60;1.00
7684;DHT22;3884;48.616;12.872;2023-07-20T10:22:53;22.70;1.00
7684;DHT22;3884;48.616;12.872;2023-07-20T10:25:22;22.90;1.00
7684;DHT22;3884;48.616;12.872;2023-07-20T10:27:50;23.00;1.00
7684;DHT22;3884;48.616;12.872;2023-07-20T10:30:18;22.90;1.00
7684;DHT22;3884;48.616;12.872;2023-07-20T10:32:45;23.00;1.00
7684;DHT22;3884;48.616;12.872;2023-07-20T10:35:13;23.00;1.00
7684;DHT22;3884;48.616;12.872;2023-07-20T10:37:53;23.20;1.00
7684;DHT22;3884;48.616;12.872;2023-07-20T10:40:31;23.20;1.00
7684;DHT22;3884;48.616;12.872;2023-07-20T10:43:02;23.40;1.00
7684;DHT22;3884;48.616;12.872;2023-07-20T10:45:39;23.60;1.00
7684;DHT22;3884;48.616;12.872;2023-07-20T10:48:13;23.90;1.00
7684;DHT22;3884;48.616;12.872;2023-07-20T10:50:40;23.70;1.00
7684;DHT22;3884;48.616;12.872;2023-07-20T10:53:13;23.70;1.00
7684;DHT22;3884;48.616;12.872;2023-07-20T10:55:41;23.90;1.00
7684;DHT22;3884;48.616;12.872;2023-07-20T10:58:13;24.00;1.00
7684;DHT22;3884;48.616;12.872;2023-07-20T11:01:01;24.00;1.00
7684;DHT22;3884;48.616;12.872;2023-07-20T11:03:30;24.40;1.00
7684;DHT22;3884;48.616;12.872;2023-07-20T11:05:58;24.10;1.00
7684;DHT22;3884;48.616;12.872;2023-07-20T11:08:40;23.90;1.00
7684;DHT22;3884;48.616;12.872;2023-07-20T11:11:23;23.80;1.00
7684;DHT22;3884;48.616;12.872;2023-07-20T11:14:01;24.00;1.00
7684;DHT22;3884;48.616;12.872;2023-07-20T11:16:35;24.00;1.00
7684;DHT22;3884;48.616;12.872;2023-07-20T11:19:03;24.00;1.00
7684;DHT22;3884;48.616;12.872;2023-07-20T11:21:35;23.90;1.00
7684;DHT22;3884;48.616;12.872;2023-07-20T11:24:05;23.80;1.00
7684;DHT22;3884;48.616;12.872;2023-07-20T11:26:40;23.80;1.00
7684;DHT22;3884;48.616;12.872;2023-07-20T11:29:07;23.90;1.00
7684;DHT22;3884;48.616;12.872;2023-07-20T11:31:38;23.80;1.00
7684;DHT22;3884;48.616;12.872;2023-07-20T11:34:05;23.90;1.00
7684;DHT22;3884;48.616;12.872;2023-07-20T11:36:33;24.10;1.00
7684;DHT22;3884;48.616;12.872;2023-07-20T11:39:00;24.30;1.00
7684;DHT22;3884;48.616;12.872;2023-07-20T11:41:31;24.30;1.00
7684;DHT22;3884;48.616;12.872;2023-07-20T11:43:59;24.10;1.00
7684;DHT22;3884;48.616;12.872;2023-07-20T11:46:27;24.00;1.00
7684;DHT22;3884;48.616;12.872;2023-07-20T11:48:57;24.00;1.00
7684;DHT22;3884;48.616;12.872;2023-07-20T11:51:26;24.10;1.00
7684;DHT22;3884;48.616;12.872;2023-07-20T11:53:54;24.10;1.00
7684;DHT22;3884;48.616;12.872;2023-07-20T11:56:22;24.00;1.00
7684;DHT22;3884;48.616;12.872;2023-07-20T11:58:55;24.10;1.00
7684;DHT22;3884;48.616;12.872;2023-07-20T12:01:25;24.20;1.00
7684;DHT22;3884;48.616;12.872;2023-07-20T12:03:55;24.10;1.00
7684;DHT22;3884;48.616;12.872;2023-07-20T12:06:23;24.10;1.00
7684;DHT22;3884;48.616;12.872;2023-07-20T12:08:54;24.00;1.00
7684;DHT22;3884;48.616;12.872;2023-07-20T12:11:32;24.10;1.00
7684;DHT22;3884;48.616;12.872;2023-07-20T12:14:01;24.00;1.00
7684;DHT22;3884;48.616;12.872;2023-07-20T12:16:28;24.10;1.00
7684;DHT22;3884;48.616;12.872;2023-07-20T12:19:00;24.10;1.00
7684;DHT22;3884;48.616;12.872;2023-07-20T12:21:27;24.00;1.00
7684;DHT22;3884;48.616;12.872;2023-07-20T12:23:57;24.20;1.00
7684;DHT22;3884;48.616;12.872;2023-07-20T12:26:24;24.10;1.00
7684;DHT22;3884;48.616;12.872;2023-07-20T12:28:52;24.20;1.00
7684;DHT22;3884;48.616;12.872;2023-07-20T12:31:21;24.60;1.00
7684;DHT22;3884;48.616;12.872;2023-07-20T12:33:49;24.60;1.00
7684;DHT22;3884;48.616;12.872;2023-07-20T12:36:17;24.50;1.00
7684;DHT22;3884;48.616;12.872;2023-07-20T12:38:45;24.30;1.00
7684;DHT22;3884;48.616;12.872;2023-07-20T12:41:12;24.50;1.00
7684;DHT22;3884;48.616;12.872;2023-07-20T12:43:39;24.70;1.00
7684;DHT22;3884;48.616;12.872;2023-07-20T12:46:06;25.00;1.00
7684;DHT22;3884;48.616;12.872;2023-07-20T12:48:35;25.10;1.00
7684;DHT22;3884;48.616;12.872;2023-07-20T12:51:03;25.00;1.00
7684;DHT22;3884;48.616;12.872;2023-07-20T12:53:31;25.30;1.00
7684;DHT22;3884;48.616;12.872;2023-07-20T12:55:57;25.20;1.00
7684;DHT22;3884;48.616;12.872;2023-07-20T12:58:24;25.10;1.00
7684;DHT22;3884;48.616;12.872;2023-07-20T13:00:52;25.10;1.00
7684;DHT22;3884;48.616;12.872;2023-07-20T13:03:19;25.10;1.00
7684;DHT22;3884;48.616;12.872;2023-07-20T13:05:47;25.10;1.00
7684;DHT22;3884;48.616;12.872;2023-07-20T13:08:14;25.00;1.00
7684;DHT22;3884;48.616;12.872;2023-07-20T13:10:41;24.90;1.00
7684;DHT22;3884;48.616;12.872;2023-07-20T13:13:10;24.70;1.00
7684;DHT22;3884;48.616;12.872;2023-07-20T13:15:42;24.80;1.00
7684;DHT22;3884;48.616;12.872;2023-07-20T13:18:09;25.10;1.00
7684;DHT22;3884;48.616;12.872;2023-07-20T13:20:36;25.20;1.00
7684;DHT22;3884;48.616;12.872;2023-07-20T13:23:04;25.10;1.00
7684;DHT22;3884;48.616;12.872;2023-07-20T13:25:31;24.80;1.00
7684;DHT22;3884;48.616;12.872;2023-07-20T13:27:58;24.80;1.00
7684;DHT22;3884;48.616;12.872;2023-07-20T13:30:25;25.10;1.00
7684;DHT22;3884;48.616;12.872;2023-07-20T13:32:52;25.50;1.00
7684;DHT22;3884;48.616;12.872;2023-07-20T13:35:19;25.70;1.00
7684;DHT22;3884;48.616;12.872;2023-07-20T13:37:46;25.60;1.00
7684;DHT22;3884;48.616;12.872;2023-07-20T13:40:15;25.40;1.00
7684;DHT22;3884;48.616;12.872;2023-07-20T13:42:44;25.30;1.00
7684;DHT22;3884;48.616;12.872;2023-07-20T13:45:11;25.10;1.00
7684;DHT22;3884;48.616;12.872;2023-07-20T13:47:39;24.90;1.00
7684;DHT22;3884;48.616;12.872;2023-07-20T13:50:07;25.00;1.00
7684;DHT22;3884;48.616;12.872;2023-07-20T13:52:34;25.00;1.00
7684;DHT22;3884;48.616;12.872;2023-07-20T13:55:03;25.30;1.00
7684;DHT22;3884;48.616;12.872;2023-07-20T13:57:31;25.60;1.00
7684;DHT22;3884;48.616;12.872;2023-07-20T13:59:58;26.10;1.00
7684;DHT22;3884;48.616;12.872;2023-07-20T14:02:26;26.00;1.00
7684;DHT22;3884;48.616;12.872;2023-07-20T14:04:53;26.00;1.00
7684;DHT22;3884;48.616;12.872;2023-07-20T14:07:21;25.90;1.00
7684;DHT22;3884;48.616;12.872;2023-07-20T14:09:48;25.90;1.00
7684;DHT22;3884;48.616;12.872;2023-07-20T14:12:15;26.20;1.00
7684;DHT22;3884;48.616;12.872;2023-07-20T14:14:43;26.10;1.00
7684;DHT22;3884;48.616;12.872;2023-07-20T14:17:10;26.20;1.00
7684;DHT22;3884;48.616;12.872;2023-07-20T14:19:37;26.70;1.00
7684;DHT22;3884;48.616;12.872;2023-07-20T14:22:05;26.90;1.00
7684;DHT22;3884;48.616;12.872;2023-07-20T14:24:32;26.80;1.00
7684;DHT22;3884;48.616;12.872;2023-07-20T14:26:58;26.90;1.00
7684;DHT22;3884;48.616;12.872;2023-07-20T14:29:26;27.10;1.00
7684;DHT22;3884;48.616;12.872;2023-07-20T14:31:58;26.90;1.00
7684;DHT22;3884;48.616;12.872;2023-07-20T14:34:25;26.70;1.00
7684;DHT22;3884;48.616;12.872;2023-07-20T14:36:52;26.90;1.00
7684;DHT22;3884;48.616;12.872;2023-07-20T14:39:19;26.60;1.00
7684;DHT22;3884;48.616;12.872;2023-07-20T14:41:46;26.10;1.00
7684;DHT22;3884;48.616;12.872;2023-07-20T14:44:13;26.10;1.00
7684;DHT22;3884;48.616;12.872;2023-07-20T14:46:40;25.90;1.00
7684;DHT22;3884;48.616;12.872;2023-07-20T14:49:08;26.30;1.00
7684;DHT22;3884;48.616;12.872;2023-07-20T14:51:36;26.60;1.00
7684;DHT22;3884;48.616;12.872;2023-07-20T14:54:08;26.80;1.00
7684;DHT22;3884;48.616;12.872;2023-07-20T14:56:37;27.00;1.00
7684;DHT22;3884;48.616;12.872;2023-07-20T14:59:04;27.20;1.00
7684;DHT22;3884;48.616;12.872;2023-07-20T15:01:31;27.00;1.00
7684;DHT22;3884;48.616;12.872;2023-07-20T15:03:58;26.60;1.00
7684;DHT22;3884;48.616;12.872;2023-07-20T15:06:28;26.80;1.00
7684;DHT22;3884;48.616;12.872;2023-07-20T15:08:56;26.40;1.00
7684;DHT22;3884;48.616;12.872;2023-07-20T15:11:23;26.60;1.00
7684;DHT22;3884;48.616;12.872;2023-07-20T15:13:50;26.70;1.00
7684;DHT22;3884;48.616;12.872;2023-07-20T15:16:16;26.50;1.00
7684;DHT22;3884;48.616;12.872;2023-07-20T15:18:43;26.70;1.00
7684;DHT22;3884;48.616;12.872;2023-07-20T15:21:10;27.00;1.00
7684;DHT22;3884;48.616;12.872;2023-07-20T15:23:38;27.40;1.00
7684;DHT22;3884;48.616;12.872;2023-07-20T15:26:05;27.50;1.00
7684;DHT22;3884;48.616;12.872;2023-07-20T15:28:32;27.20;1.00
7684;DHT22;3884;48.616;12.872;2023-07-20T15:31:00;27.20;1.00
7684;DHT22;3884;48.616;12.872;2023-07-20T15:33:27;27.30;1.00
7684;DHT22;3884;48.616;12.872;2023-07-20T15:35:54;27.50;1.00
7684;DHT22;3884;48.616;12.872;2023-07-20T15:38:21;27.30;1.00
7684;DHT22;3884;48.616;12.872;2023-07-20T15:40:49;27.50;1.00
7684;DHT22;3884;48.616;12.872;2023-07-20T15:43:16;27.70;1.00
7684;DHT22;3884;48.616;12.872;2023-07-20T15:45:47;27.70;1.00
7684;DHT22;3884;48.616;12.872;2023-07-20T15:48:14;28.00;1.00
7684;DHT22;3884;48.616;12.872;2023-07-20T15:50:42;28.20;1.00
7684;DHT22;3884;48.616;12.872;2023-07-20T15:53:10;28.20;1.00
7684;DHT22;3884;48.616;12.872;2023-07-20T15:55:36;27.80;1.00
7684;DHT22;3884;48.616;12.872;2023-07-20T15:58:05;27.80;1.00
7684;DHT22;3884;48.616;12.872;2023-07-20T16:00:32;27.70;1.00
7684;DHT22;3884;48.616;12.872;2023-07-20T16:02:59;27.60;1.00
7684;DHT22;3884;48.616;12.872;2023-07-20T16:05:26;27.60;1.00
7684;DHT22;3884;48.616;12.872;2023-07-20T16:07:52;27.30;1.00